sensor_id;sensor_type;location;lat;lon;timestamp;temperature;humidity
19945;DHT22;10134;50.952;6.930;2023-04-01T00:00:21;12.20;99.90
19945;DHT22;10134;50.952;6.930;2023-04-01T00:02:48;12.20;99.90
19945;DHT22;10134;50.952;6.930;2023-04-01T00:05:16;12.10;99.90
19945;DHT22;10134;50.952;6.930;2023-04-01T00:07:43;12.10;99.90
19945;DHT22;10134;50.952;6.930;2023-04-01T00:10:12;12.10;99.90
19945;DHT22;10134;50.952;6.930;2023-04-01T00:12:40;12.10;99.90
19945;DHT22;10134;50.952;6.930;2023-04-01T00:15:09;12.10;99.90
19945;DHT22;10134;50.952;6.930;2023-04-01T00:17:38;12.10;99.90
19945;DHT22;10134;50.952;6.930;2023-04-01T00:20:06;12.10;99.90
19945;DHT22;10134;50.952;6.930;2023-04-01T00:22:35;12.10;99.90
19945;DHT22;10134;50.952;6.930;2023-04-01T00:25:03;12.10;99.90
19945;DHT22;10134;50.952;6.930;2023-04-01T00:27:31;12.10;99.90
19945;DHT22;10134;50.952;6.930;2023-04-01T00:29:58;12.10;99.90
19945;DHT22;10134;50.952;6.930;2023-04-01T00:32:26;12.10;99.90
19945;DHT22;10134;50.952;6.930;2023-04-01T00:34:53;12.10;99.90
19945;DHT22;10134;50.952;6.930;2023-04-01T00:37:21;12.10;99.90
19945;DHT22;10134;50.952;6.930;2023-04-01T00:39:48;12.10;99.90
19945;DHT22;10134;50.952;6.930;2023-04-01T00:42:15;12.10;99.90
19945;DHT22;10134;50.952;6.930;2023-04-01T00:44:45;12.10;99.90
19945;DHT22;10134;50.952;6.930;2023-04-01T00:47:13;12.10;99.90
19945;DHT22;10134;50.952;6.930;2023-04-01T00:49:44;12.10;99.90
19945;DHT22;10134;50.952;6.930;2023-04-01T00:52:15;12.10;99.90
19945;DHT22;10134;50.952;6.930;2023-04-01T00:54:46;12.10;99.90
19945;DHT22;10134;50.952;6.930;2023-04-01T00:57:30;12.10;99.90
19945;DHT22;10134;50.952;6.930;2023-04-01T00:59:58;12.10;99.90
19945;DHT22;10134;50.952;6.930;2023-04-01T01:02:26;12.10;99.90
19945;DHT22;10134;50.952;6.930;2023-04-01T01:04:54;12.10;99.90
19945;DHT22;10134;50.952;6.930;2023-04-01T01:07:36;12.10;99.90
19945;DHT22;10134;50.952;6.930;2023-04-01T01:15:43;12.10;99.90
19945;DHT22;10134;50.952;6.930;2023-04-01T01:18:39;12.10;99.90
19945;DHT22;10134;50.952;6.930;2023-04-01T01:21:30;12.10;99.90
19945;DHT22;10134;50.952;6.930;2023-04-01T01:37:33;12.00;99.90
19945;DHT22;10134;50.952;6.930;2023-04-01T01:40:06;12.00;99.90
19945;DHT22;10134;50.952;6.930;2023-04-01T01:42:38;12.00;99.90
19945;DHT22;10134;50.952;6.930;2023-04-01T01:45:07;12.00;99.90
19945;DHT22;10134;50.952;6.930;2023-04-01T01:47:37;12.00;99.90
19945;DHT22;10134;50.952;6.930;2023-04-01T01:50:06;12.00;99.90
19945;DHT22;10134;50.952;6.930;2023-04-01T01:52:35;12.00;99.90
19945;DHT22;10134;50.952;6.930;2023-04-01T01:55:02;12.00;99.90
19945;DHT22;10134;50.952;6.930;2023-04-01T01:57:41;11.90;99.90
19945;DHT22;10134;50.952;6.930;2023-04-01T02:00:14;11.90;99.90
19945;DHT22;10134;50.952;6.930;2023-04-01T02:02:46;11.90;99.90
19945;DHT22;10134;50.952;6.930;2023-04-01T02:05:19;11.90;99.90
19945;DHT22;10134;50.952;6.930;2023-04-01T02:07:52;11.90;99.90
19945;DHT22;10134;50.952;6.930;2023-04-01T02:10:25;11.90;99.90
19945;DHT22;10134;50.952;6.930;2023-04-01T02:12:58;11.90;99.90
19945;DHT22;10134;50.952;6.930;2023-04-01T02:15:31;11.80;99.90
19945;DHT22;10134;50.952;6.930;2023-04-01T02:18:01;11.80;99.90
19945;DHT22;10134;50.952;6.930;2023-04-01T02:20:29;11.80;99.90
19945;DHT22;10134;50.952;6.930;2023-04-01T02:22:58;11.80;99.90
19945;DHT22;10134;50.952;6.930;2023-04-01T02:25:29;11.80;99.90
19945;DHT22;10134;50.952;6.930;2023-04-01T02:27:59;11.80;99.90
19945;DHT22;10134;50.952;6.930;2023-04-01T02:30:29;11.80;99.90
19945;DHT22;10134;50.952;6.930;2023-04-01T02:32:57;11.80;99.90
19945;DHT22;10134;50.952;6.930;2023-04-01T02:35:25;11.70;99.90
19945;DHT22;10134;50.952;6.930;2023-04-01T02:37:54;11.70;99.90
19945;DHT22;10134;50.952;6.930;2023-04-01T02:40:22;11.70;99.90
19945;DHT22;10134;50.952;6.930;2023-04-01T02:42:49;11.60;99.90
19945;DHT22;10134;50.952;6.930;2023-04-01T02:45:18;11.60;99.90
19945;DHT22;10134;50.952;6.930;2023-04-01T02:47:45;11.60;99.90
19945;DHT22;10134;50.952;6.930;2023-04-01T02:50:12;11.60;99.90
19945;DHT22;10134;50.952;6.930;2023-04-01T02:52:40;11.60;99.90
19945;DHT22;10134;50.952;6.930;2023-04-01T02:55:07;11.50;99.90
19945;DHT22;10134;50.952;6.930;2023-04-01T02:57:35;11.50;99.90
19945;DHT22;10134;50.952;6.930;2023-04-01T03:00:03;11.50;99.90
19945;DHT22;10134;50.952;6.930;2023-04-01T03:02:31;11.50;99.90
19945;DHT22;10134;50.952;6.930;2023-04-01T03:04:58;11.40;99.90
19945;DHT22;10134;50.952;6.930;2023-04-01T03:07:25;11.40;99.90
19945;DHT22;10134;50.952;6.930;2023-04-01T03:09:53;11.40;99.90
19945;DHT22;10134;50.952;6.930;2023-04-01T03:12:20;11.40;99.90
19945;DHT22;10134;50.952;6.930;2023-04-01T03:14:50;11.40;99.90
19945;DHT22;10134;50.952;6.930;2023-04-01T03:17:17;11.40;99.90
19945;DHT22;10134;50.952;6.930;2023-04-01T03:19:45;11.30;99.90
19945;DHT22;10134;50.952;6.930;2023-04-01T03:22:13;11.30;99.90
19945;DHT22;10134;50.952;6.930;2023-04-01T03:24:40;11.30;99.90
19945;DHT22;10134;50.952;6.930;2023-04-01T03:27:08;11.30;99.90
19945;DHT22;10134;50.952;6.930;2023-04-01T03:29:35;11.30;99.90
19945;DHT22;10134;50.952;6.930;2023-04-01T03:32:03;11.30;99.90
19945;DHT22;10134;50.952;6.930;2023-04-01T03:34:31;11.30;99.90
19945;DHT22;10134;50.952;6.930;2023-04-01T03:36:58;11.30;99.90
19945;DHT22;10134;50.952;6.930;2023-04-01T03:39:26;11.30;99.90
19945;DHT22;10134;50.952;6.930;2023-04-01T03:41:54;11.20;99.90
19945;DHT22;10134;50.952;6.930;2023-04-01T03:44:22;11.20;99.90
19945;DHT22;10134;50.952;6.930;2023-04-01T03:46:52;11.20;99.90
19945;DHT22;10134;50.952;6.930;2023-04-01T03:49:20;11.20;99.90
19945;DHT22;10134;50.952;6.930;2023-04-01T03:51:47;11.20;99.90
19945;DHT22;10134;50.952;6.930;2023-04-01T03:54:14;11.20;99.90
19945;DHT22;10134;50.952;6.930;2023-04-01T03:56:43;11.20;99.90
19945;DHT22;10134;50.952;6.930;2023-04-01T03:59:11;11.20;99.90
19945;DHT22;10134;50.952;6.930;2023-04-01T04:01:38;11.20;99.90
19945;DHT22;10134;50.952;6.930;2023-04-01T04:04:06;11.20;99.90
19945;DHT22;10134;50.952;6.930;2023-04-01T04:06:33;11.20;99.90
19945;DHT22;10134;50.952;6.930;2023-04-01T04:09:01;11.20;99.90
19945;DHT22;10134;50.952;6.930;2023-04-01T04:11:31;11.20;99.90
19945;DHT22;10134;50.952;6.930;2023-04-01T04:14:00;11.20;99.90
19945;DHT22;10134;50.952;6.930;2023-04-01T04:16:27;11.20;99.90
19945;DHT22;10134;50.952;6.930;2023-04-01T04:19:01;11.30;99.90
19945;DHT22;10134;50.952;6.930;2023-04-01T04:21:29;11.30;99.90
19945;DHT22;10134;50.952;6.930;2023-04-01T04:23:58;11.30;99.90
19945;DHT22;10134;50.952;6.930;2023-04-01T04:26:25;11.30;99.90
19945;DHT22;10134;50.952;6.930;2023-04-01T04:28:58;11.30;99.90
19945;DHT22;10134;50.952;6.930;2023-04-01T04:31:26;11.30;99.90
19945;DHT22;10134;50.952;6.930;2023-04-01T04:33:56;11.30;99.90
19945;DHT22;10134;50.952;6.930;2023-04-01T04:36:23;11.30;99.90
19945;DHT22;10134;50.952;6.930;2023-04-01T04:38:52;11.30;99.90
19945;DHT22;10134;50.952;6.930;2023-04-01T04:41:20;11.30;99.90
19945;DHT22;10134;50.952;6.930;2023-04-01T04:43:55;11.30;99.90
19945;DHT22;10134;50.952;6.930;2023-04-01T04:46:24;11.30;99.90
19945;DHT22;10134;50.952;6.930;2023-04-01T04:49:02;11.30;99.90
19945;DHT22;10134;50.952;6.930;2023-04-01T04:51:30;11.30;99.90
19945;DHT22;10134;50.952;6.930;2023-04-01T04:53:57;11.30;99.90
19945;DHT22;10134;50.952;6.930;2023-04-01T04:56:36;11.30;99.90
19945;DHT22;10134;50.952;6.930;2023-04-01T04:59:06;11.30;99.90
19945;DHT22;10134;50.952;6.930;2023-04-01T05:01:43;11.30;99.90
19945;DHT22;10134;50.952;6.930;2023-04-01T05:04:10;11.30;99.90
19945;DHT22;10134;50.952;6.930;2023-04-01T05:06:37;11.20;99.90
19945;DHT22;10134;50.952;6.930;2023-04-01T05:09:05;11.20;99.90
19945;DHT22;10134;50.952;6.930;2023-04-01T05:11:32;11.20;99.90
19945;DHT22;10134;50.952;6.930;2023-04-01T05:13:59;11.20;99.90
19945;DHT22;10134;50.952;6.930;2023-04-01T05:16:27;11.20;99.90
19945;DHT22;10134;50.952;6.930;2023-04-01T05:18:55;11.20;99.90
19945;DHT22;10134;50.952;6.930;2023-04-01T05:21:22;11.20;99.90
19945;DHT22;10134;50.952;6.930;2023-04-01T05:23:50;11.20;99.90
19945;DHT22;10134;50.952;6.930;2023-04-01T05:26:17;11.20;99.90
19945;DHT22;10134;50.952;6.930;2023-04-01T05:28:45;11.20;99.90
19945;DHT22;10134;50.952;6.930;2023-04-01T05:31:12;11.20;99.90
19945;DHT22;10134;50.952;6.930;2023-04-01T05:33:43;11.20;99.90
19945;DHT22;10134;50.952;6.930;2023-04-01T05:36:15;11.20;99.90
19945;DHT22;10134;50.952;6.930;2023-04-01T05:38:43;11.20;99.90
19945;DHT22;10134;50.952;6.930;2023-04-01T05:41:13;11.20;99.90
19945;DHT22;10134;50.952;6.930;2023-04-01T05:43:44;11.20;99.90
19945;DHT22;10134;50.952;6.930;2023-04-01T05:46:44;11.20;99.90
19945;DHT22;10134;50.952;6.930;2023-04-01T05:49:18;11.20;99.90
19945;DHT22;10134;50.952;6.930;2023-04-01T05:51:47;11.20;99.90
19945;DHT22;10134;50.952;6.930;2023-04-01T05:54:14;11.10;99.90
19945;DHT22;10134;50.952;6.930;2023-04-01T05:56:43;11.10;99.90
19945;DHT22;10134;50.952;6.930;2023-04-01T05:59:14;11.10;99.90
19945;DHT22;10134;50.952;6.930;2023-04-01T06:01:42;11.10;99.90
19945;DHT22;10134;50.952;6.930;2023-04-01T06:04:16;11.10;99.90
19945;DHT22;10134;50.952;6.930;2023-04-01T06:06:45;11.10;99.90
19945;DHT22;10134;50.952;6.930;2023-04-01T06:09:27;11.10;99.90
19945;DHT22;10134;50.952;6.930;2023-04-01T06:15:20;11.10;99.90
19945;DHT22;10134;50.952;6.930;2023-04-01T06:17:56;11.10;99.90
19945;DHT22;10134;50.952;6.930;2023-04-01T06:23:45;11.10;99.90
19945;DHT22;10134;50.952;6.930;2023-04-01T06:26:59;11.10;99.90
19945;DHT22;10134;50.952;6.930;2023-04-01T06:29:49;11.20;99.90
19945;DHT22;10134;50.952;6.930;2023-04-01T06:35:19;11.20;99.90
19945;DHT22;10134;50.952;6.930;2023-04-01T06:38:01;11.20;99.90
19945;DHT22;10134;50.952;6.930;2023-04-01T06:41:06;11.20;99.90
19945;DHT22;10134;50.952;6.930;2023-04-01T06:46:52;11.20;99.90
19945;DHT22;10134;50.952;6.930;2023-04-01T06:50:01;11.20;99.90
19945;DHT22;10134;50.952;6.930;2023-04-01T06:53:06;11.20;99.90
19945;DHT22;10134;50.952;6.930;2023-04-01T06:56:02;11.20;99.90
19945;DHT22;10134;50.952;6.930;2023-04-01T06:59:00;11.30;99.90
19945;DHT22;10134;50.952;6.930;2023-04-01T07:01:48;11.30;99.90
19945;DHT22;10134;50.952;6.930;2023-04-01T07:04:20;11.30;99.90
19945;DHT22;10134;50.952;6.930;2023-04-01T07:10:05;11.30;99.90
19945;DHT22;10134;50.952;6.930;2023-04-01T07:12:58;11.30;99.90
19945;DHT22;10134;50.952;6.930;2023-04-01T07:15:36;11.30;99.90
19945;DHT22;10134;50.952;6.930;2023-04-01T07:18:32;11.30;99.90
19945;DHT22;10134;50.952;6.930;2023-04-01T07:21:05;11.30;99.90
19945;DHT22;10134;50.952;6.930;2023-04-01T07:23:40;11.30;99.90
19945;DHT22;10134;50.952;6.930;2023-04-01T07:26:32;11.30;99.90
19945;DHT22;10134;50.952;6.930;2023-04-01T07:29:12;11.30;99.90
19945;DHT22;10134;50.952;6.930;2023-04-01T07:34:23;11.30;99.90
19945;DHT22;10134;50.952;6.930;2023-04-01T07:37:10;11.30;99.90
19945;DHT22;10134;50.952;6.930;2023-04-01T07:40:04;11.30;99.90
19945;DHT22;10134;50.952;6.930;2023-04-01T07:42:41;11.20;99.90
19945;DHT22;10134;50.952;6.930;2023-04-01T07:48:08;11.30;99.90
19945;DHT22;10134;50.952;6.930;2023-04-01T07:50:41;11.30;99.90
19945;DHT22;10134;50.952;6.930;2023-04-01T07:53:40;11.30;99.90
19945;DHT22;10134;50.952;6.930;2023-04-01T07:56:15;11.30;99.90
19945;DHT22;10134;50.952;6.930;2023-04-01T08:04:58;11.40;99.90
19945;DHT22;10134;50.952;6.930;2023-04-01T08:07:44;11.40;99.90
19945;DHT22;10134;50.952;6.930;2023-04-01T08:13:53;11.40;99.90
19945;DHT22;10134;50.952;6.930;2023-04-01T08:17:09;11.40;99.90
19945;DHT22;10134;50.952;6.930;2023-04-01T08:22:27;11.40;99.90
19945;DHT22;10134;50.952;6.930;2023-04-01T08:25:01;11.40;99.90
19945;DHT22;10134;50.952;6.930;2023-04-01T08:30:26;11.40;99.90
19945;DHT22;10134;50.952;6.930;2023-04-01T08:32:58;11.40;99.90
19945;DHT22;10134;50.952;6.930;2023-04-01T08:35:49;11.40;99.90
19945;DHT22;10134;50.952;6.930;2023-04-01T08:38:30;11.40;99.90
19945;DHT22;10134;50.952;6.930;2023-04-01T09:07:28;11.50;99.90
19945;DHT22;10134;50.952;6.930;2023-04-01T09:13:20;11.60;99.90
19945;DHT22;10134;50.952;6.930;2023-04-01T09:16:16;11.70;99.90
19945;DHT22;10134;50.952;6.930;2023-04-01T09:27:10;11.80;99.90
19945;DHT22;10134;50.952;6.930;2023-04-01T09:32:54;11.70;99.90
19945;DHT22;10134;50.952;6.930;2023-04-01T09:35:37;11.70;99.90
19945;DHT22;10134;50.952;6.930;2023-04-01T09:40:56;11.70;99.90
19945;DHT22;10134;50.952;6.930;2023-04-01T09:55:57;11.60;99.90
19945;DHT22;10134;50.952;6.930;2023-04-01T09:59:04;11.60;99.90
19945;DHT22;10134;50.952;6.930;2023-04-01T10:02:18;11.50;99.90
19945;DHT22;10134;50.952;6.930;2023-04-01T10:16:55;11.60;99.90
19945;DHT22;10134;50.952;6.930;2023-04-01T10:46:32;11.70;99.90
19945;DHT22;10134;50.952;6.930;2023-04-01T10:52:20;11.80;99.90
19945;DHT22;10134;50.952;6.930;2023-04-01T10:58:51;12.00;99.90
19945;DHT22;10134;50.952;6.930;2023-04-01T11:08:04;12.10;99.90
19945;DHT22;10134;50.952;6.930;2023-04-01T11:33:57;12.50;99.90
19945;DHT22;10134;50.952;6.930;2023-04-01T11:39:27;12.50;99.90
19945;DHT22;10134;50.952;6.930;2023-04-01T11:42:14;12.50;99.90
19945;DHT22;10134;50.952;6.930;2023-04-01T11:48:27;12.60;99.90
19945;DHT22;10134;50.952;6.930;2023-04-01T11:54:28;12.50;99.90
19945;DHT22;10134;50.952;6.930;2023-04-01T12:00:10;12.50;99.90
19945;DHT22;10134;50.952;6.930;2023-04-01T12:02:45;12.50;99.90
19945;DHT22;10134;50.952;6.930;2023-04-01T12:05:47;12.50;99.90
19945;DHT22;10134;50.952;6.930;2023-04-01T12:08:27;12.50;99.90
19945;DHT22;10134;50.952;6.930;2023-04-01T12:11:18;12.50;99.90
19945;DHT22;10134;50.952;6.930;2023-04-01T12:13:55;12.50;99.90
19945;DHT22;10134;50.952;6.930;2023-04-01T12:22:38;12.50;99.90
19945;DHT22;10134;50.952;6.930;2023-04-01T12:28:16;12.60;99.90
19945;DHT22;10134;50.952;6.930;2023-04-01T12:31:05;12.60;99.90
19945;DHT22;10134;50.952;6.930;2023-04-01T12:33:48;12.60;99.90
19945;DHT22;10134;50.952;6.930;2023-04-01T12:36:46;12.60;99.90
19945;DHT22;10134;50.952;6.930;2023-04-01T12:42:38;12.70;99.90
19945;DHT22;10134;50.952;6.930;2023-04-01T13:29:31;12.70;99.90
19945;DHT22;10134;50.952;6.930;2023-04-01T13:40:42;12.90;99.90
19945;DHT22;10134;50.952;6.930;2023-04-01T13:44:00;12.90;99.90
19945;DHT22;10134;50.952;6.930;2023-04-01T13:50:01;12.80;99.90
19945;DHT22;10134;50.952;6.930;2023-04-01T13:55:54;12.70;99.90
19945;DHT22;10134;50.952;6.930;2023-04-01T14:01:23;12.70;99.90
19945;DHT22;10134;50.952;6.930;2023-04-01T14:12:27;12.60;99.90
19945;DHT22;10134;50.952;6.930;2023-04-01T14:18:16;12.60;99.90
19945;DHT22;10134;50.952;6.930;2023-04-01T14:27:01;12.50;99.90
19945;DHT22;10134;50.952;6.930;2023-04-01T14:29:58;12.50;99.90
19945;DHT22;10134;50.952;6.930;2023-04-01T14:38:15;12.50;99.90
19945;DHT22;10134;50.952;6.930;2023-04-01T14:49:34;12.40;99.90
19945;DHT22;10134;50.952;6.930;2023-04-01T14:52:11;12.50;99.90
19945;DHT22;10134;50.952;6.930;2023-04-01T14:54:45;12.50;99.90
19945;DHT22;10134;50.952;6.930;2023-04-01T15:00:12;12.50;99.90
19945;DHT22;10134;50.952;6.930;2023-04-01T15:02:44;12.50;99.90
19945;DHT22;10134;50.952;6.930;2023-04-01T15:08:11;12.40;99.90
19945;DHT22;10134;50.952;6.930;2023-04-01T15:18:34;12.30;99.90
19945;DHT22;10134;50.952;6.930;2023-04-01T15:21:12;12.30;99.90
19945;DHT22;10134;50.952;6.930;2023-04-01T15:24:06;12.30;99.90
19945;DHT22;10134;50.952;6.930;2023-04-01T15:26:59;12.20;99.90
19945;DHT22;10134;50.952;6.930;2023-04-01T15:32:31;12.30;99.90
19945;DHT22;10134;50.952;6.930;2023-04-01T15:38:20;12.30;99.90
19945;DHT22;10134;50.952;6.930;2023-04-01T15:43:41;12.30;99.90
19945;DHT22;10134;50.952;6.930;2023-04-01T15:46:36;12.30;99.90
19945;DHT22;10134;50.952;6.930;2023-04-01T15:49:26;12.30;99.90
19945;DHT22;10134;50.952;6.930;2023-04-01T15:54:52;12.30;99.90
19945;DHT22;10134;50.952;6.930;2023-04-01T15:58:06;12.30;99.90
19945;DHT22;10134;50.952;6.930;2023-04-01T16:04:14;12.20;99.90
19945;DHT22;10134;50.952;6.930;2023-04-01T16:06:56;12.10;99.90
19945;DHT22;10134;50.952;6.930;2023-04-01T16:12:38;12.10;99.90
19945;DHT22;10134;50.952;6.930;2023-04-01T16:18:15;12.10;99.90
19945;DHT22;10134;50.952;6.930;2023-04-01T16:21:06;12.20;99.90
19945;DHT22;10134;50.952;6.930;2023-04-01T16:24:23;12.10;99.90
19945;DHT22;10134;50.952;6.930;2023-04-01T16:29:48;12.10;99.90
19945;DHT22;10134;50.952;6.930;2023-04-01T16:32:37;12.10;99.90
19945;DHT22;10134;50.952;6.930;2023-04-01T16:38:47;12.10;99.90
19945;DHT22;10134;50.952;6.930;2023-04-01T16:41:32;12.10;99.90
19945;DHT22;10134;50.952;6.930;2023-04-01T16:44:18;12.00;99.90
19945;DHT22;10134;50.952;6.930;2023-04-01T16:46:53;12.00;99.90
19945;DHT22;10134;50.952;6.930;2023-04-01T16:49:36;11.90;99.90
19945;DHT22;10134;50.952;6.930;2023-04-01T16:52:13;11.90;99.90
19945;DHT22;10134;50.952;6.930;2023-04-01T16:57:51;11.90;99.90
19945;DHT22;10134;50.952;6.930;2023-04-01T17:00:37;11.90;99.90
19945;DHT22;10134;50.952;6.930;2023-04-01T17:11:37;11.80;99.90
19945;DHT22;10134;50.952;6.930;2023-04-01T17:22:49;11.70;99.90
19945;DHT22;10134;50.952;6.930;2023-04-01T17:42:07;11.50;99.90
19945;DHT22;10134;50.952;6.930;2023-04-01T17:47:13;11.40;99.90
19945;DHT22;10134;50.952;6.930;2023-04-01T17:52:39;11.30;99.90
19945;DHT22;10134;50.952;6.930;2023-04-01T17:55:46;11.30;99.90
19945;DHT22;10134;50.952;6.930;2023-04-01T18:04:15;11.20;99.90
19945;DHT22;10134;50.952;6.930;2023-04-01T18:09:52;11.30;99.90
19945;DHT22;10134;50.952;6.930;2023-04-01T18:21:32;11.20;99.90
19945;DHT22;10134;50.952;6.930;2023-04-01T18:24:16;11.20;99.90
19945;DHT22;10134;50.952;6.930;2023-04-01T18:27:06;11.20;99.90
19945;DHT22;10134;50.952;6.930;2023-04-01T18:29:54;11.10;99.90
19945;DHT22;10134;50.952;6.930;2023-04-01T18:32:35;11.10;99.90
19945;DHT22;10134;50.952;6.930;2023-04-01T18:38:13;11.10;99.90
19945;DHT22;10134;50.952;6.930;2023-04-01T18:40:51;11.10;99.90
19945;DHT22;10134;50.952;6.930;2023-04-01T18:49:00;11.00;99.90
19945;DHT22;10134;50.952;6.930;2023-04-01T18:54:27;11.00;99.90
19945;DHT22;10134;50.952;6.930;2023-04-01T18:57:16;11.00;99.90
19945;DHT22;10134;50.952;6.930;2023-04-01T19:00:03;10.90;99.90
19945;DHT22;10134;50.952;6.930;2023-04-01T19:02:40;10.90;99.90
19945;DHT22;10134;50.952;6.930;2023-04-01T19:05:33;10.90;99.90
19945;DHT22;10134;50.952;6.930;2023-04-01T19:08:32;10.90;99.90
19945;DHT22;10134;50.952;6.930;2023-04-01T19:11:03;10.90;99.90
19945;DHT22;10134;50.952;6.930;2023-04-01T19:13:42;10.90;99.90
19945;DHT22;10134;50.952;6.930;2023-04-01T19:27:03;10.90;99.90
19945;DHT22;10134;50.952;6.930;2023-04-01T19:37:56;10.90;99.90
19945;DHT22;10134;50.952;6.930;2023-04-01T19:45:52;10.90;99.90
19945;DHT22;10134;50.952;6.930;2023-04-01T19:57:46;10.90;99.90
19945;DHT22;10134;50.952;6.930;2023-04-01T20:00:42;10.80;99.90
19945;DHT22;10134;50.952;6.930;2023-04-01T20:08:41;10.90;99.90
19945;DHT22;10134;50.952;6.930;2023-04-01T20:19:40;10.80;99.90
19945;DHT22;10134;50.952;6.930;2023-04-01T20:25:25;10.80;99.90
19945;DHT22;10134;50.952;6.930;2023-04-01T20:28:05;10.70;99.90
19945;DHT22;10134;50.952;6.930;2023-04-01T20:31:23;10.70;99.90
19945;DHT22;10134;50.952;6.930;2023-04-01T20:36:34;10.70;99.90
19945;DHT22;10134;50.952;6.930;2023-04-01T20:41:53;10.70;99.90
19945;DHT22;10134;50.952;6.930;2023-04-01T20:44:46;10.70;99.90
19945;DHT22;10134;50.952;6.930;2023-04-01T20:50:51;10.60;99.90
19945;DHT22;10134;50.952;6.930;2023-04-01T21:02:42;10.60;99.90
19945;DHT22;10134;50.952;6.930;2023-04-01T21:11:00;10.50;99.90
19945;DHT22;10134;50.952;6.930;2023-04-01T21:16:51;10.50;99.90
19945;DHT22;10134;50.952;6.930;2023-04-01T21:22:22;10.60;99.90
19945;DHT22;10134;50.952;6.930;2023-04-01T21:30:35;10.60;99.90
19945;DHT22;10134;50.952;6.930;2023-04-01T21:33:28;10.60;99.90
19945;DHT22;10134;50.952;6.930;2023-04-01T21:48:04;10.60;99.90
19945;DHT22;10134;50.952;6.930;2023-04-01T21:57:02;10.50;99.90
19945;DHT22;10134;50.952;6.930;2023-04-01T22:02:45;10.60;99.90
19945;DHT22;10134;50.952;6.930;2023-04-01T22:05:26;10.60;99.90
19945;DHT22;10134;50.952;6.930;2023-04-01T22:13:57;10.50;99.90
19945;DHT22;10134;50.952;6.930;2023-04-01T22:16:50;10.50;99.90
19945;DHT22;10134;50.952;6.930;2023-04-01T22:19:47;10.50;99.90
19945;DHT22;10134;50.952;6.930;2023-04-01T22:22:45;10.60;99.90
19945;DHT22;10134;50.952;6.930;2023-04-01T22:25:24;10.50;99.90
19945;DHT22;10134;50.952;6.930;2023-04-01T22:28:00;10.50;99.90
19945;DHT22;10134;50.952;6.930;2023-04-01T22:30:34;10.50;99.90
19945;DHT22;10134;50.952;6.930;2023-04-01T22:33:14;10.50;99.90
19945;DHT22;10134;50.952;6.930;2023-04-01T22:41:42;10.60;99.90
19945;DHT22;10134;50.952;6.930;2023-04-01T22:47:25;10.50;99.90
19945;DHT22;10134;50.952;6.930;2023-04-01T22:50:22;10.60;99.90
19945;DHT22;10134;50.952;6.930;2023-04-01T22:53:03;10.60;99.90
19945;DHT22;10134;50.952;6.930;2023-04-01T22:55:35;10.60;99.90
19945;DHT22;10134;50.952;6.930;2023-04-01T22:58:30;10.50;99.90
19945;DHT22;10134;50.952;6.930;2023-04-01T23:01:24;10.60;99.90
19945;DHT22;10134;50.952;6.930;2023-04-01T23:03:52;10.60;99.90
19945;DHT22;10134;50.952;6.930;2023-04-01T23:06:28;10.50;99.90
19945;DHT22;10134;50.952;6.930;2023-04-01T23:09:07;10.50;99.90
19945;DHT22;10134;50.952;6.930;2023-04-01T23:16:52;10.50;99.90
19945;DHT22;10134;50.952;6.930;2023-04-01T23:19:25;10.50;99.90
19945;DHT22;10134;50.952;6.930;2023-04-01T23:28:16;10.50;99.90
19945;DHT22;10134;50.952;6.930;2023-04-01T23:38:25;10.50;99.90
19945;DHT22;10134;50.952;6.930;2023-04-01T23:40:54;10.50;99.90
19945;DHT22;10134;50.952;6.930;2023-04-01T23:45:55;10.60;99.90
19945;DHT22;10134;50.952;6.930;2023-04-01T23:48:30;10.60;99.90
19945;DHT22;10134;50.952;6.930;2023-04-01T23:50:58;10.60;99.90
19945;DHT22;10134;50.952;6.930;2023-04-01T23:53:30;10.60;99.90
19945;DHT22;10134;50.952;6.930;2023-04-01T23:55:58;10.60;99.90
19945;DHT22;10134;50.952;6.930;2023-04-01T23:58:27;10.60;99.90
